Latest Weather Observations for Taree Airport

IDN60801

Issued at 8:35 am EDT Wednesday 26 November 2014 (issued every 30 minutes, with the page automatically refreshed every 10 minutes)

About weather observations | Map of weather stations | Latest weather observations for NSW | Other Formats
Station Details ID: 060141 Name: TAREE AIRPORT AWS Lat: -31.89 Lon: 152.51 Height: 8.0 m
Data from the previous 72 hours. | See also: Recent months at Taree Airport
Date/Time
EDT
Temp
°C
App
Temp
°C
Dew
Point
Rel
Hum
%
Delta-T
°C
Wind Press
QNH
hPa
Press
MSL
hPa
Rain
since 9 am
mm
Dir
 
Spd
km/h
Gust
km/h
Spd
kts
Gust
kts
26/08:30am 21.9 21.9 17.3 75 2.8 NE 13 17 7 9 1018.9 1018.9 1.2
26/08:00am 21.7 23.0 17.5 77 2.6 NE 7 9 4 5 1019.1 1019.1 1.2
26/07:30am 20.9 23.5 17.5 81 2.1 CALM 0 0 0 0 1018.9 1018.9 1.2
26/07:00am 20.3 22.8 17.3 83 1.8 CALM 0 0 0 0 1018.7 1018.7 1.2
26/06:30am 20.0 22.6 17.6 86 1.5 CALM 0 0 0 0 1018.6 1018.6 1.2
26/06:00am 19.3 21.6 16.7 85 1.6 CALM 0 0 0 0 1018.6 1018.6 1.2
26/05:30am 19.8 22.4 17.6 87 1.3 CALM 0 0 0 0 1018.4 1018.4 1.2
26/05:00am 19.7 22.3 17.5 87 1.3 CALM 0 0 0 0 1018.2 1018.2 1.2
26/04:30am 19.7 22.4 17.8 89 1.2 CALM 0 0 0 0 1018.1 1018.1 1.2
26/04:00am 19.8 22.1 16.8 83 1.8 CALM 0 0 0 0 1017.9 1017.9 1.2
26/03:30am 19.9 21.9 16.9 83 1.8 E 2 7 1 4 1017.9 1017.9 1.2
26/03:00am 19.5 21.7 16.5 83 1.8 CALM 0 0 0 0 1018.3 1018.3 1.2
26/02:30am 19.6 22.0 17.0 85 1.6 CALM 0 0 0 0 1018.2 1018.2 1.2
26/02:00am 19.7 22.1 16.9 84 1.7 CALM 0 0 0 0 1018.7 1018.7 1.2
26/01:30am 19.8 22.1 16.8 83 1.8 CALM 0 0 0 0 1019.0 1019.0 1.2
26/01:00am 20.1 22.2 16.3 79 2.3 CALM 0 0 0 0 1019.2 1019.2 1.2
26/12:30am 20.1 22.3 16.5 80 2.2 CALM 0 0 0 0 1019.5 1019.5 1.2
26/12:00am 20.3 22.4 16.3 78 2.4 CALM 0 0 0 0 1019.5 1019.5 1.2
 
Date/Time
EDT
Temp
°C
App
Temp
°C
Dew
Point
Rel
Hum
%
Delta-T
°C
Wind Press
QNH
hPa
Press
MSL
hPa
Rain
since 9 am
mm
Dir
 
Spd
km/h
Gust
km/h
Spd
kts
Gust
kts
25/11:30pm 20.4 21.3 16.0 76 2.6 E 6 7 3 4 1019.8 1019.8 1.2
25/11:00pm 20.5 21.2 16.1 76 2.6 E 7 7 4 4 1019.8 1019.8 1.2
25/10:30pm 20.6 21.1 16.6 78 2.4 E 9 13 5 7 1019.7 1019.7 1.2
25/10:00pm 20.6 21.2 16.8 79 2.3 E 9 11 5 6 1019.8 1019.8 1.2
25/09:30pm 20.7 21.7 16.9 79 2.3 ESE 7 9 4 5 1019.3 1019.3 1.2
25/09:00pm 20.7 21.7 16.9 79 2.3 S 7 9 4 5 1019.2 1019.2 1.2
25/08:30pm 20.8 21.0 16.8 78 2.4 SSE 11 15 6 8 1018.8 1018.8 1.2
25/08:00pm 20.9 20.8 16.9 78 2.4 SSE 13 15 7 8 1018.6 1018.6 1.2
25/07:30pm 20.9 21.2 17.1 79 2.3 SSE 11 15 6 8 1018.3 1018.3 1.2
25/07:00pm 20.9 20.3 16.7 77 2.5 SSE 15 19 8 10 1018.1 1018.1 1.2
25/06:30pm 21.0 20.5 17.0 78 2.4 SSE 15 20 8 11 1017.7 1017.7 1.2
25/06:00pm 20.9 19.6 16.7 77 2.5 SE 19 28 10 15 1017.0 1017.0 1.2
25/05:30pm 21.3 19.6 17.1 77 2.6 SSE 22 33 12 18 1016.4 1016.4 1.2
25/05:00pm 21.6 18.7 17.0 75 2.8 SSE 28 41 15 22 1015.8 1015.8 1.2
25/04:30pm 22.4 19.6 17.3 73 3.1 SSE 28 41 15 22 1015.4 1015.4 1.2
25/04:00pm 22.8 19.2 17.3 71 3.4 SSE 32 46 17 25 1015.1 1015.1 1.2
25/03:30pm 23.4 19.6 16.7 66 4.1 SSE 32 44 17 24 1014.5 1014.5 1.2
25/03:00pm 25.0 21.4 17.7 64 4.6 SSE 33 52 18 28 1014.1 1014.1 1.2
25/02:59pm 25.1 21.7 17.8 64 4.6 SSE 32 52 17 28 1014.0 1014.0 1.2
25/02:30pm 26.9 23.7 19.5 64 4.8 SSE 35 46 19 25 1013.7 1013.7 1.2
25/02:26pm 26.3 22.5 18.2 61 5.1 SSE 35 46 19 25 1013.7 1013.7 1.2
25/02:00pm 28.4 27.0 17.9 53 6.7 SSW 22 26 12 14 1013.7 1013.7 1.2
25/01:30pm 27.4 28.7 20.2 65 4.7 S 13 19 7 10 1013.7 1013.7 1.2
25/01:00pm 26.3 27.6 20.8 71 3.6 S 15 24 8 13 1014.1 1014.1 1.2
25/12:30pm 25.9 27.7 21.8 78 2.7 SSW 15 19 8 10 1014.2 1014.2 1.0
25/12:00pm 26.1 29.2 20.2 70 3.8 WNW 4 11 2 6 1014.1 1014.1 1.0
25/11:30am 25.9 30.3 21.3 76 3.0 CALM 0 0 0 0 1013.7 1013.7 0.8
25/11:00am 25.7 30.2 22.2 81 2.3 ENE 2 6 1 3 1013.6 1013.6 0.6
25/10:30am 25.1 28.9 22.4 85 1.8 SW 6 7 3 4 1013.2 1013.2 0.4
25/10:00am 25.0 28.9 21.9 83 2.1 NNE 4 7 2 4 1012.9 1012.9 0.2
25/09:30am 25.1 28.9 21.6 81 2.3 NNE 4 7 2 4 1012.8 1012.8 0.0
25/09:00am 25.5 29.9 21.4 78 2.7 CALM 0 0 0 0 1012.5 1012.5 7.6
25/08:30am 25.3 29.7 21.4 79 2.6 CALM 0 6 0 3 1012.4 1012.4 7.4
25/08:00am 24.5 27.4 21.8 85 1.8 W 9 11 5 6 1012.5 1012.5 7.4
25/07:30am 24.2 27.0 21.5 85 1.8 SW 9 11 5 6 1012.0 1012.0 7.4
25/07:00am 23.2 26.3 21.5 90 1.1 W 7 9 4 5 1011.6 1011.6 7.4
25/06:30am 22.3 26.9 21.8 97 0.3 CALM 0 0 0 0 1011.1 1011.1 7.4
25/06:00am 21.9 24.7 21.6 98 0.2 SW 9 9 5 5 1011.0 1011.0 7.4
25/05:30am 21.6 25.6 21.3 98 0.2 WSW 2 7 1 4 1010.4 1010.4 7.4
25/05:00am 21.6 24.3 21.3 98 0.2 W 9 9 5 5 1010.2 1010.1 7.4
25/04:30am 21.4 25.6 20.9 97 0.3 CALM 0 0 0 0 1010.0 1009.9 7.4
25/04:00am 21.7 24.8 21.4 98 0.2 N 7 11 4 6 1010.0 1009.9 7.4
25/03:30am 21.8 24.7 21.1 96 0.5 N 7 13 4 7 1010.2 1010.1 7.4
25/03:00am 22.3 25.6 21.5 95 0.5 NNW 6 7 3 4 1010.3 1010.3 7.4
25/02:30am 22.6 25.9 21.8 95 0.5 SW 7 11 4 6 1010.4 1010.4 7.4
25/02:00am 22.4 24.8 21.6 95 0.5 SSW 11 17 6 9 1010.5 1010.5 7.4
25/01:30am 22.5 24.9 21.5 94 0.7 SSW 11 13 6 7 1010.3 1010.3 7.4
25/01:00am 22.3 26.6 21.1 93 0.8 CALM 0 6 0 3 1010.3 1010.3 7.2
25/12:30am 22.4 25.4 21.2 93 0.8 ENE 7 9 4 5 1010.5 1010.5 7.2
25/12:00am 22.7 25.4 21.3 92 0.9 NNE 9 15 5 8 1010.7 1010.7 7.2
 
Date/Time
EDT
Temp
°C
App
Temp
°C
Dew
Point
Rel
Hum
%
Delta-T
°C
Wind Press
QNH
hPa
Press
MSL
hPa
Rain
since 9 am
mm
Dir
 
Spd
km/h
Gust
km/h
Spd
kts
Gust
kts
24/11:30pm 22.9 26.0 21.4 91 1.0 NNW 7 11 4 6 1010.8 1010.8 7.0
24/11:00pm 22.6 24.4 21.2 92 0.9 WNW 13 17 7 9 1010.9 1010.9 6.8
24/10:30pm 23.0 25.7 21.4 91 1.1 SW 9 17 5 9 1009.5 1009.4 6.6
24/10:00pm 23.3 25.7 21.6 90 1.1 NW 11 13 6 7 1010.5 1010.5 6.2
24/09:30pm 23.7 27.6 21.8 89 1.3 SSW 4 9 2 5 1010.5 1010.5 6.0
24/09:00pm 24.0 25.5 21.3 85 1.8 SW 15 24 8 13 1011.0 1011.0 5.6
24/08:30pm 24.6 24.9 21.5 83 2.1 WSW 22 33 12 18 1010.6 1010.6 5.0
24/08:23pm 24.3 25.3 22.2 88 1.4 SW 20 24 11 13 1010.4 1010.4 5.0
24/08:00pm 23.9 26.5 22.0 89 1.3 NNW 11 17 6 9 1008.4 1008.3 4.4
24/07:30pm 24.5 28.2 22.2 87 1.5 N 6 7 3 4 1007.3 1007.2 3.8
24/07:00pm 25.0 30.1 22.7 87 1.6 CALM 0 0 0 0 1007.2 1007.1 3.8
24/06:30pm 24.1 28.0 21.2 84 1.9 N 2 7 1 4 1007.4 1007.3 3.8
24/06:00pm 23.9 27.0 21.4 86 1.7 NE 7 11 4 6 1006.6 1006.5 3.8
24/05:30pm 24.5 27.3 20.8 80 2.4 NW 7 13 4 7 1006.6 1006.5 3.8
24/05:00pm 23.7 24.9 20.0 80 2.4 ENE 13 20 7 11 1006.6 1006.5 3.4
24/04:48pm 26.1 26.3 17.7 60 5.3 W 13 17 7 9 1007.3 1007.2 2.0
24/04:41pm 27.4 22.1 16.4 51 6.8 NW 39 72 21 39 1007.7 1007.6 0.2
24/04:34pm 32.5 27.3 15.5 36 10.6 NW 37 72 20 39 1007.6 1007.5 0.0
24/04:33pm 33.9 31.2 17.6 38 10.5 NNW 28 54 15 29 1007.4 1007.3 0.0
24/04:30pm 33.0 34.9 20.5 47 8.3 NNE 11 17 6 9 1006.0 1005.9 0.0
24/04:00pm 33.1 33.9 21.3 50 8.0 ENE 19 28 10 15 1005.6 1005.5 0.0
24/03:30pm 34.2 35.3 21.3 47 8.7 E 17 28 9 15 1005.7 1005.6 0.0
24/03:00pm 34.1 35.0 20.8 45 9.0 E 17 26 9 14 1006.5 1006.4 0.0
24/02:30pm 34.9 36.4 20.5 43 9.7 E 13 19 7 10 1007.6 1007.5 0.0
24/02:00pm 33.2 33.0 18.5 41 9.6 SSE 17 24 9 13 1008.7 1008.6 0.0
24/01:30pm 32.0 31.5 17.8 42 9.1 SSE 17 22 9 12 1009.3 1009.2 0.0
24/01:00pm 30.7 29.8 17.7 45 8.3 SE 19 24 10 13 1009.8 1009.7 0.0
24/12:30pm 31.1 30.3 17.0 42 8.9 SE 17 22 9 12 1010.6 1010.6 0.0
24/12:00pm 31.1 31.8 18.8 48 8.0 ESE 13 19 7 10 1011.0 1011.0 0.0
24/11:30am 30.9 31.5 18.6 48 8.0 ESE 13 19 7 10 1011.4 1011.4 0.0
24/11:00am 30.8 32.2 19.5 51 7.4 SE 11 19 6 10 1011.9 1011.9 0.0
24/10:30am 30.8 32.7 19.8 52 7.2 SE 9 13 5 7 1012.3 1012.3 0.0
24/10:00am 29.8 31.6 18.3 50 7.4 SSE 6 9 3 5 1012.5 1012.5 0.0
24/09:30am 29.3 31.0 18.4 51 7.0 S 7 9 4 5 1012.7 1012.7 0.0
24/09:00am 29.7 31.2 17.5 48 7.7 E 6 13 3 7 1012.7 1012.7 0.0
24/08:30am 28.9 30.6 18.1 52 6.9 ENE 6 9 3 5 1012.9 1012.9 0.0
24/08:00am 27.1 29.2 18.1 58 5.7 E 4 9 2 5 1012.8 1012.8 0.0
24/07:30am 26.0 27.8 18.7 64 4.7 E 7 9 4 5 1012.6 1012.6 0.0
24/07:00am 24.3 26.1 18.7 71 3.6 E 7 9 4 5 1012.5 1012.5 0.0
24/06:30am 24.2 27.0 18.8 72 3.4 NW 2 6 1 3 1012.6 1012.6 0.0
24/06:00am 21.9 24.3 17.9 78 2.5 ESE 2 6 1 3 1012.4 1012.4 0.0
24/05:30am 21.6 22.8 17.4 77 2.6 E 7 7 4 4 1012.3 1012.3 0.0
24/05:00am 23.0 25.3 16.8 68 3.8 CALM 0 0 0 0 1011.7 1011.7 0.0
24/04:30am 24.3 25.1 17.3 65 4.3 W 9 11 5 6 1011.7 1011.7 0.0
24/04:00am 23.5 25.7 18.4 73 3.2 SW 4 7 2 4 1011.3 1011.3 0.0
24/03:30am 23.6 26.0 18.9 75 3.0 WSW 4 9 2 5 1011.4 1011.4 0.0
24/03:00am 23.5 26.4 18.2 72 3.3 CALM 0 0 0 0 1011.4 1011.4 0.0
24/02:30am 23.5 25.0 17.5 69 3.7 NNW 6 7 3 4 1011.7 1011.7 0.0
24/02:00am 23.4 25.0 17.8 71 3.5 NE 6 9 3 5 1011.7 1011.7 0.0
24/01:30am 23.6 26.2 17.6 69 3.7 CALM 0 0 0 0 1011.9 1011.9 0.0
24/01:00am 24.1 24.2 17.4 66 4.2 NE 13 19 7 10 1012.2 1012.2 0.0
24/12:30am 24.7 26.4 16.2 59 5.2 NNE 2 11 1 6 1012.4 1012.4 0.0
24/12:00am 25.9 27.6 15.3 52 6.4 CALM 0 0 0 0 1012.6 1012.6 0.0
 
Date/Time
EDT
Temp
°C
App
Temp
°C
Dew
Point
Rel
Hum
%
Delta-T
°C
Wind Press
QNH
hPa
Press
MSL
hPa
Rain
since 9 am
mm
Dir
 
Spd
km/h
Gust
km/h
Spd
kts
Gust
kts
23/11:30pm 27.1 28.7 14.8 47 7.4 CALM 0 6 0 3 1012.6 1012.6 0.0
23/11:00pm 28.4 29.8 14.3 42 8.5 CALM 0 0 0 0 1012.6 1012.6 0.0
23/10:30pm 29.7 28.9 13.9 38 9.5 SSW 11 15 6 8 1012.8 1012.8 0.0
23/10:00pm 30.7 28.2 13.5 35 10.3 SW 19 26 10 14 1013.0 1013.0 0.0
23/09:30pm 29.8 26.5 14.0 38 9.5 SSW 24 35 13 19 1012.8 1012.8 0.0
23/09:26pm 29.1 26.9 14.5 41 8.8 SSW 19 24 10 13 1012.4 1012.4 0.0
23/09:00pm 28.8 28.6 14.6 42 8.6 W 9 9 5 5 1010.3 1010.3 0.0
23/08:30pm 30.5 29.5 14.6 38 9.7 W 13 17 7 9 1010.1 1010.0 0.0
23/08:00pm 30.7 30.2 13.9 36 10.1 WNW 9 15 5 8 1009.7 1009.6 0.0
23/07:30pm 31.4 30.4 14.5 35 10.3 NNW 13 22 7 12 1009.5 1009.4 0.0
23/07:00pm 32.1 29.4 14.7 35 10.7 NW 22 32 12 17 1009.8 1009.7 0.0
23/06:30pm 33.1 33.7 18.5 42 9.5 N 13 20 7 11 1009.3 1009.2 0.0
23/06:00pm 31.7 33.7 21.5 54 6.9 ENE 13 15 7 8 1008.8 1008.7 0.0
23/05:30pm 32.8 35.1 22.0 53 7.4 ENE 13 17 7 9 1008.7 1008.6 0.0
23/05:00pm 30.2 34.6 22.1 62 5.5 ENE 2 7 1 4 1008.9 1008.8 0.0
23/04:30pm 30.5 33.4 21.8 59 5.9 ENE 9 11 5 6 1009.0 1008.9 0.0
23/04:00pm 32.1 33.3 20.7 51 7.6 ESE 15 24 8 13 1008.8 1008.7 0.0
23/03:30pm 32.7 33.3 20.2 47 8.3 E 17 26 9 14 1008.7 1008.6 0.0
23/03:00pm 34.3 34.6 20.3 44 9.4 ESE 19 24 10 13 1008.7 1008.6 0.0
23/02:30pm 35.8 35.6 19.7 39 10.7 E 20 28 11 15 1009.1 1009.0 0.0
23/02:00pm 34.8 34.2 20.4 43 9.7 SE 24 30 13 16 1009.4 1009.3 0.0
23/01:30pm 34.1 34.4 20.8 45 8.9 SE 20 28 11 15 1009.9 1009.8 0.0
23/01:00pm 34.3 34.5 22.0 48 8.4 SE 24 30 13 16 1010.1 1010.0 0.0
23/12:30pm 34.3 35.9 23.3 52 7.6 SSE 20 26 11 14 1010.3 1010.3 0.0
23/12:00pm 33.7 35.3 22.8 53 7.5 SSE 19 24 10 13 1010.5 1010.5 0.0
23/11:30am 34.8 37.9 22.2 48 8.6 NE 9 15 5 8 1010.5 1010.5 0.0
23/11:00am 33.1 35.8 21.3 50 8.0 E 9 13 5 7 1010.8 1010.8 0.0
23/10:30am 31.4 34.6 21.6 56 6.6 NE 7 11 4 6 1011.2 1011.2 0.0
23/10:00am 29.9 32.4 21.0 59 5.9 ESE 9 17 5 9 1011.4 1011.4 0.0
23/09:30am 29.3 33.7 21.3 62 5.3 CALM 0 0 0 0 1011.4 1011.4 0.0
23/09:00am 27.4 30.8 20.2 65 4.7 E 2 7 1 4 1011.6 1011.6 0.0

Other Formats:

Comma delimited format used in spreadsheet applications
http://www.bom.gov.au/fwo/IDN60801/IDN60801.95784.axf

JavaScript Object Notation format (JSON) in row-major order
http://www.bom.gov.au/fwo/IDN60801/IDN60801.95784.json